sensor_id;sensor_type;location;lat;lon;timestamp;P1;durP1;ratioP1;P2;durP2;ratioP2
826;SDS011;395;48.132;11.608;2023-04-16T00:00:10;2.63;;;2.28;;
826;SDS011;395;48.132;11.608;2023-04-16T00:02:36;2.93;;;2.37;;
826;SDS011;395;48.132;11.608;2023-04-16T00:05:02;3.05;;;2.70;;
826;SDS011;395;48.132;11.608;2023-04-16T00:07:28;2.83;;;2.57;;
826;SDS011;395;48.132;11.608;2023-04-16T00:09:53;3.50;;;3.20;;
826;SDS011;395;48.132;11.608;2023-04-16T00:12:19;3.37;;;3.07;;
826;SDS011;395;48.132;11.608;2023-04-16T00:14:45;3.97;;;3.67;;
826;SDS011;395;48.132;11.608;2023-04-16T00:17:11;3.70;;;3.30;;
826;SDS011;395;48.132;11.608;2023-04-16T00:19:37;3.83;;;3.43;;
826;SDS011;395;48.132;11.608;2023-04-16T00:22:02;6.07;;;4.20;;
826;SDS011;395;48.132;11.608;2023-04-16T00:24:28;5.77;;;4.27;;
826;SDS011;395;48.132;11.608;2023-04-16T00:26:53;4.30;;;3.90;;
826;SDS011;395;48.132;11.608;2023-04-16T00:29:20;4.72;;;4.18;;
826;SDS011;395;48.132;11.608;2023-04-16T00:31:47;4.33;;;3.93;;
826;SDS011;395;48.132;11.608;2023-04-16T00:34:12;4.40;;;3.80;;
826;SDS011;395;48.132;11.608;2023-04-16T00:36:38;5.03;;;4.53;;
826;SDS011;395;48.132;11.608;2023-04-16T00:39:03;5.13;;;4.63;;
826;SDS011;395;48.132;11.608;2023-04-16T00:41:29;5.10;;;4.60;;
826;SDS011;395;48.132;11.608;2023-04-16T00:43:55;5.67;;;4.57;;
826;SDS011;395;48.132;11.608;2023-04-16T00:46:23;5.90;;;4.97;;
826;SDS011;395;48.132;11.608;2023-04-16T00:48:50;4.80;;;4.40;;
826;SDS011;395;48.132;11.608;2023-04-16T00:51:18;4.90;;;4.35;;
826;SDS011;395;48.132;11.608;2023-04-16T00:53:45;6.32;;;5.22;;
826;SDS011;395;48.132;11.608;2023-04-16T00:56:11;4.35;;;3.92;;
826;SDS011;395;48.132;11.608;2023-04-16T00:58:37;4.45;;;4.05;;
826;SDS011;395;48.132;11.608;2023-04-16T01:01:03;5.25;;;4.70;;
826;SDS011;395;48.132;11.608;2023-04-16T01:03:41;4.55;;;4.07;;
826;SDS011;395;48.132;11.608;2023-04-16T01:06:08;11.70;;;4.00;;
826;SDS011;395;48.132;11.608;2023-04-16T01:08:35;5.80;;;4.80;;
826;SDS011;395;48.132;11.608;2023-04-16T01:11:01;4.22;;;3.83;;
826;SDS011;395;48.132;11.608;2023-04-16T01:13:27;4.97;;;4.20;;
826;SDS011;395;48.132;11.608;2023-04-16T01:15:53;5.00;;;4.40;;
826;SDS011;395;48.132;11.608;2023-04-16T01:18:19;5.40;;;4.73;;
826;SDS011;395;48.132;11.608;2023-04-16T01:20:46;4.00;;;3.35;;
826;SDS011;395;48.132;11.608;2023-04-16T01:23:13;4.93;;;4.43;;
826;SDS011;395;48.132;11.608;2023-04-16T01:25:38;5.55;;;4.72;;
826;SDS011;395;48.132;11.608;2023-04-16T01:28:05;4.10;;;3.70;;
826;SDS011;395;48.132;11.608;2023-04-16T01:30:31;4.57;;;3.92;;
826;SDS011;395;48.132;11.608;2023-04-16T01:32:57;5.07;;;4.50;;
826;SDS011;395;48.132;11.608;2023-04-16T01:35:23;5.17;;;4.60;;
826;SDS011;395;48.132;11.608;2023-04-16T01:37:49;4.70;;;4.13;;
826;SDS011;395;48.132;11.608;2023-04-16T01:40:15;4.60;;;4.07;;
826;SDS011;395;48.132;11.608;2023-04-16T01:42:41;4.22;;;3.85;;
826;SDS011;395;48.132;11.608;2023-04-16T01:45:07;6.97;;;4.07;;
826;SDS011;395;48.132;11.608;2023-04-16T01:47:33;4.33;;;3.87;;
826;SDS011;395;48.132;11.608;2023-04-16T01:49:59;5.40;;;4.90;;
826;SDS011;395;48.132;11.608;2023-04-16T01:52:25;5.13;;;4.63;;
826;SDS011;395;48.132;11.608;2023-04-16T01:54:50;5.03;;;4.53;;
826;SDS011;395;48.132;11.608;2023-04-16T01:57:16;5.90;;;4.97;;
826;SDS011;395;48.132;11.608;2023-04-16T01:59:42;5.20;;;4.70;;
826;SDS011;395;48.132;11.608;2023-04-16T02:02:08;6.10;;;5.50;;
826;SDS011;395;48.132;11.608;2023-04-16T02:04:39;4.27;;;3.90;;
826;SDS011;395;48.132;11.608;2023-04-16T02:07:06;6.00;;;5.38;;
826;SDS011;395;48.132;11.608;2023-04-16T02:09:35;5.57;;;5.00;;
826;SDS011;395;48.132;11.608;2023-04-16T02:12:02;4.93;;;4.43;;
826;SDS011;395;48.132;11.608;2023-04-16T02:14:28;5.20;;;4.70;;
826;SDS011;395;48.132;11.608;2023-04-16T02:16:54;5.15;;;4.38;;
826;SDS011;395;48.132;11.608;2023-04-16T02:19:20;5.53;;;4.60;;
826;SDS011;395;48.132;11.608;2023-04-16T02:21:46;5.23;;;4.73;;
826;SDS011;395;48.132;11.608;2023-04-16T02:24:12;5.35;;;4.80;;
826;SDS011;395;48.132;11.608;2023-04-16T02:26:38;5.50;;;5.00;;
826;SDS011;395;48.132;11.608;2023-04-16T02:29:03;5.30;;;4.50;;
826;SDS011;395;48.132;11.608;2023-04-16T02:31:29;5.17;;;4.60;;
826;SDS011;395;48.132;11.608;2023-04-16T02:33:55;6.32;;;5.32;;
826;SDS011;395;48.132;11.608;2023-04-16T02:36:21;5.73;;;4.90;;
826;SDS011;395;48.132;11.608;2023-04-16T02:38:47;5.17;;;4.67;;
826;SDS011;395;48.132;11.608;2023-04-16T02:41:12;5.30;;;4.80;;
826;SDS011;395;48.132;11.608;2023-04-16T02:43:38;6.37;;;5.70;;
826;SDS011;395;48.132;11.608;2023-04-16T02:46:03;6.00;;;5.40;;
826;SDS011;395;48.132;11.608;2023-04-16T02:48:29;6.87;;;5.00;;
826;SDS011;395;48.132;11.608;2023-04-16T02:50:55;5.37;;;4.70;;
826;SDS011;395;48.132;11.608;2023-04-16T02:53:20;5.40;;;4.90;;
826;SDS011;395;48.132;11.608;2023-04-16T02:55:50;6.63;;;4.57;;
826;SDS011;395;48.132;11.608;2023-04-16T02:58:17;5.13;;;4.63;;
826;SDS011;395;48.132;11.608;2023-04-16T03:00:48;4.57;;;4.18;;
826;SDS011;395;48.132;11.608;2023-04-16T03:03:13;5.03;;;4.33;;
826;SDS011;395;48.132;11.608;2023-04-16T03:05:39;6.43;;;4.80;;
826;SDS011;395;48.132;11.608;2023-04-16T03:08:05;5.43;;;4.93;;
826;SDS011;395;48.132;11.608;2023-04-16T03:10:31;4.65;;;4.25;;
826;SDS011;395;48.132;11.608;2023-04-16T03:12:57;4.90;;;4.40;;
826;SDS011;395;48.132;11.608;2023-04-16T03:15:23;6.20;;;4.60;;
826;SDS011;395;48.132;11.608;2023-04-16T03:17:49;5.00;;;4.40;;
826;SDS011;395;48.132;11.608;2023-04-16T03:20:15;8.03;;;5.13;;
826;SDS011;395;48.132;11.608;2023-04-16T03:22:44;5.38;;;4.88;;
826;SDS011;395;48.132;11.608;2023-04-16T03:25:10;6.00;;;4.93;;
826;SDS011;395;48.132;11.608;2023-04-16T03:27:36;4.80;;;4.33;;
826;SDS011;395;48.132;11.608;2023-04-16T03:30:04;4.65;;;3.97;;
826;SDS011;395;48.132;11.608;2023-04-16T03:32:30;5.40;;;4.05;;
826;SDS011;395;48.132;11.608;2023-04-16T03:34:56;5.97;;;4.27;;
826;SDS011;395;48.132;11.608;2023-04-16T03:37:21;3.60;;;3.30;;
826;SDS011;395;48.132;11.608;2023-04-16T03:39:47;5.03;;;4.10;;
826;SDS011;395;48.132;11.608;2023-04-16T03:42:12;4.70;;;4.10;;
826;SDS011;395;48.132;11.608;2023-04-16T03:44:38;4.40;;;4.00;;
826;SDS011;395;48.132;11.608;2023-04-16T03:47:04;4.47;;;4.07;;
826;SDS011;395;48.132;11.608;2023-04-16T03:49:30;4.10;;;3.67;;
826;SDS011;395;48.132;11.608;2023-04-16T03:51:55;3.40;;;3.10;;
826;SDS011;395;48.132;11.608;2023-04-16T03:54:21;4.30;;;3.50;;
826;SDS011;395;48.132;11.608;2023-04-16T03:56:46;3.53;;;3.23;;
826;SDS011;395;48.132;11.608;2023-04-16T03:59:12;5.43;;;4.20;;
826;SDS011;395;48.132;11.608;2023-04-16T04:01:38;5.20;;;4.30;;
826;SDS011;395;48.132;11.608;2023-04-16T04:04:03;4.90;;;4.03;;
826;SDS011;395;48.132;11.608;2023-04-16T04:06:29;4.60;;;4.03;;
826;SDS011;395;48.132;11.608;2023-04-16T04:08:55;4.60;;;4.20;;
826;SDS011;395;48.132;11.608;2023-04-16T04:11:21;4.97;;;4.10;;
826;SDS011;395;48.132;11.608;2023-04-16T04:13:46;4.67;;;3.80;;
826;SDS011;395;48.132;11.608;2023-04-16T04:16:12;4.20;;;3.60;;
826;SDS011;395;48.132;11.608;2023-04-16T04:18:38;3.93;;;3.53;;
826;SDS011;395;48.132;11.608;2023-04-16T04:21:04;4.60;;;3.70;;
826;SDS011;395;48.132;11.608;2023-04-16T04:23:36;4.10;;;3.80;;
826;SDS011;395;48.132;11.608;2023-04-16T04:26:02;4.20;;;3.80;;
826;SDS011;395;48.132;11.608;2023-04-16T04:28:30;4.87;;;4.10;;
826;SDS011;395;48.132;11.608;2023-04-16T04:30:57;4.57;;;3.97;;
826;SDS011;395;48.132;11.608;2023-04-16T04:33:24;4.57;;;3.90;;
826;SDS011;395;48.132;11.608;2023-04-16T04:35:50;3.50;;;3.20;;
826;SDS011;395;48.132;11.608;2023-04-16T04:38:16;4.03;;;3.60;;
826;SDS011;395;48.132;11.608;2023-04-16T04:40:44;4.45;;;4.05;;
826;SDS011;395;48.132;11.608;2023-04-16T04:43:10;4.03;;;3.63;;
826;SDS011;395;48.132;11.608;2023-04-16T04:45:36;4.43;;;4.03;;
826;SDS011;395;48.132;11.608;2023-04-16T04:48:02;4.10;;;3.70;;
826;SDS011;395;48.132;11.608;2023-04-16T04:50:27;4.70;;;4.30;;
826;SDS011;395;48.132;11.608;2023-04-16T04:52:53;5.87;;;3.80;;
826;SDS011;395;48.132;11.608;2023-04-16T04:55:19;4.07;;;3.67;;
826;SDS011;395;48.132;11.608;2023-04-16T04:57:45;4.50;;;4.10;;
826;SDS011;395;48.132;11.608;2023-04-16T05:00:10;3.87;;;3.40;;
826;SDS011;395;48.132;11.608;2023-04-16T05:02:36;4.37;;;3.83;;
826;SDS011;395;48.132;11.608;2023-04-16T05:05:02;5.20;;;4.70;;
826;SDS011;395;48.132;11.608;2023-04-16T05:07:29;3.90;;;3.60;;
826;SDS011;395;48.132;11.608;2023-04-16T05:09:54;3.83;;;3.47;;
826;SDS011;395;48.132;11.608;2023-04-16T05:12:20;4.57;;;4.07;;
826;SDS011;395;48.132;11.608;2023-04-16T05:14:46;5.40;;;3.60;;
826;SDS011;395;48.132;11.608;2023-04-16T05:17:11;3.60;;;3.30;;
826;SDS011;395;48.132;11.608;2023-04-16T05:19:37;3.67;;;3.37;;
826;SDS011;395;48.132;11.608;2023-04-16T05:22:02;4.50;;;4.10;;
826;SDS011;395;48.132;11.608;2023-04-16T05:24:28;4.10;;;3.70;;
826;SDS011;395;48.132;11.608;2023-04-16T05:26:55;4.20;;;3.80;;
826;SDS011;395;48.132;11.608;2023-04-16T05:29:21;4.22;;;3.65;;
826;SDS011;395;48.132;11.608;2023-04-16T05:31:47;4.13;;;3.63;;
826;SDS011;395;48.132;11.608;2023-04-16T05:34:13;4.03;;;3.67;;
826;SDS011;395;48.132;11.608;2023-04-16T05:36:38;3.63;;;3.30;;
826;SDS011;395;48.132;11.608;2023-04-16T05:39:04;4.10;;;3.70;;
826;SDS011;395;48.132;11.608;2023-04-16T05:41:31;3.90;;;3.33;;
826;SDS011;395;48.132;11.608;2023-04-16T05:43:57;3.63;;;3.23;;
826;SDS011;395;48.132;11.608;2023-04-16T05:46:23;3.50;;;3.20;;
826;SDS011;395;48.132;11.608;2023-04-16T05:48:49;3.40;;;3.10;;
826;SDS011;395;48.132;11.608;2023-04-16T05:51:14;3.40;;;3.10;;
826;SDS011;395;48.132;11.608;2023-04-16T05:53:40;2.80;;;2.60;;
826;SDS011;395;48.132;11.608;2023-04-16T05:56:06;2.97;;;2.77;;
826;SDS011;395;48.132;11.608;2023-04-16T05:58:32;3.33;;;3.00;;
826;SDS011;395;48.132;11.608;2023-04-16T06:00:58;3.20;;;2.90;;
826;SDS011;395;48.132;11.608;2023-04-16T06:03:25;3.00;;;2.80;;
826;SDS011;395;48.132;11.608;2023-04-16T06:05:50;2.50;;;2.30;;
826;SDS011;395;48.132;11.608;2023-04-16T06:08:16;2.37;;;2.17;;
826;SDS011;395;48.132;11.608;2023-04-16T06:10:41;3.00;;;2.80;;
826;SDS011;395;48.132;11.608;2023-04-16T06:13:09;2.80;;;2.60;;
826;SDS011;395;48.132;11.608;2023-04-16T06:15:35;2.40;;;2.17;;
826;SDS011;395;48.132;11.608;2023-04-16T06:18:00;2.63;;;2.07;;
826;SDS011;395;48.132;11.608;2023-04-16T06:20:26;2.00;;;1.90;;
826;SDS011;395;48.132;11.608;2023-04-16T06:22:51;1.90;;;1.70;;
826;SDS011;395;48.132;11.608;2023-04-16T06:25:17;1.90;;;1.77;;
826;SDS011;395;48.132;11.608;2023-04-16T06:27:43;1.90;;;1.60;;
826;SDS011;395;48.132;11.608;2023-04-16T06:30:12;1.50;;;1.40;;
826;SDS011;395;48.132;11.608;2023-04-16T06:32:38;1.65;;;1.55;;
826;SDS011;395;48.132;11.608;2023-04-16T06:35:05;1.97;;;1.77;;
826;SDS011;395;48.132;11.608;2023-04-16T06:37:31;1.30;;;1.20;;
826;SDS011;395;48.132;11.608;2023-04-16T06:39:56;1.53;;;1.43;;
826;SDS011;395;48.132;11.608;2023-04-16T06:42:22;1.40;;;1.30;;
826;SDS011;395;48.132;11.608;2023-04-16T06:44:47;1.20;;;1.10;;
826;SDS011;395;48.132;11.608;2023-04-16T06:47:14;1.63;;;1.00;;
826;SDS011;395;48.132;11.608;2023-04-16T06:49:40;0.87;;;0.77;;
826;SDS011;395;48.132;11.608;2023-04-16T06:52:05;0.97;;;0.90;;
826;SDS011;395;48.132;11.608;2023-04-16T06:54:31;1.10;;;1.10;;
826;SDS011;395;48.132;11.608;2023-04-16T06:56:57;0.70;;;0.70;;
826;SDS011;395;48.132;11.608;2023-04-16T06:59:22;1.20;;;0.90;;
826;SDS011;395;48.132;11.608;2023-04-16T07:01:48;1.10;;;0.97;;
826;SDS011;395;48.132;11.608;2023-04-16T07:04:14;0.80;;;0.80;;
826;SDS011;395;48.132;11.608;2023-04-16T07:06:39;0.93;;;0.70;;
826;SDS011;395;48.132;11.608;2023-04-16T07:09:05;0.50;;;0.50;;
826;SDS011;395;48.132;11.608;2023-04-16T07:11:31;0.70;;;0.70;;
826;SDS011;395;48.132;11.608;2023-04-16T07:13:56;0.70;;;0.70;;
826;SDS011;395;48.132;11.608;2023-04-16T07:16:23;0.90;;;0.60;;
826;SDS011;395;48.132;11.608;2023-04-16T07:18:48;1.60;;;0.60;;
826;SDS011;395;48.132;11.608;2023-04-16T07:21:14;0.60;;;0.53;;
826;SDS011;395;48.132;11.608;2023-04-16T07:23:40;0.50;;;0.50;;
826;SDS011;395;48.132;11.608;2023-04-16T07:26:05;1.23;;;0.83;;
826;SDS011;395;48.132;11.608;2023-04-16T07:28:31;1.43;;;1.17;;
826;SDS011;395;48.132;11.608;2023-04-16T07:30:57;0.90;;;0.50;;
826;SDS011;395;48.132;11.608;2023-04-16T07:33:23;1.03;;;0.40;;
826;SDS011;395;48.132;11.608;2023-04-16T07:35:48;1.03;;;0.77;;
826;SDS011;395;48.132;11.608;2023-04-16T07:38:15;0.50;;;0.40;;
826;SDS011;395;48.132;11.608;2023-04-16T07:40:40;0.40;;;0.20;;
826;SDS011;395;48.132;11.608;2023-04-16T07:43:06;0.83;;;0.60;;
826;SDS011;395;48.132;11.608;2023-04-16T07:45:32;0.40;;;0.30;;
826;SDS011;395;48.132;11.608;2023-04-16T07:47:57;1.57;;;1.00;;
826;SDS011;395;48.132;11.608;2023-04-16T07:50:23;0.40;;;0.40;;
826;SDS011;395;48.132;11.608;2023-04-16T07:52:49;0.70;;;0.60;;
826;SDS011;395;48.132;11.608;2023-04-16T07:55:15;1.83;;;0.43;;
826;SDS011;395;48.132;11.608;2023-04-16T07:57:41;1.33;;;0.50;;
826;SDS011;395;48.132;11.608;2023-04-16T08:00:07;0.53;;;0.50;;
826;SDS011;395;48.132;11.608;2023-04-16T08:02:33;0.50;;;0.40;;
826;SDS011;395;48.132;11.608;2023-04-16T08:04:59;0.70;;;0.60;;
826;SDS011;395;48.132;11.608;2023-04-16T08:07:24;1.70;;;0.57;;
826;SDS011;395;48.132;11.608;2023-04-16T08:09:50;0.50;;;0.50;;
826;SDS011;395;48.132;11.608;2023-04-16T08:12:17;0.77;;;0.63;;
826;SDS011;395;48.132;11.608;2023-04-16T08:14:43;0.47;;;0.40;;
826;SDS011;395;48.132;11.608;2023-04-16T08:17:10;0.50;;;0.40;;
826;SDS011;395;48.132;11.608;2023-04-16T08:19:36;0.80;;;0.80;;
826;SDS011;395;48.132;11.608;2023-04-16T08:22:02;1.33;;;0.77;;
826;SDS011;395;48.132;11.608;2023-04-16T08:24:28;0.70;;;0.40;;
826;SDS011;395;48.132;11.608;2023-04-16T08:26:54;0.70;;;0.60;;
826;SDS011;395;48.132;11.608;2023-04-16T08:29:19;0.73;;;0.50;;
826;SDS011;395;48.132;11.608;2023-04-16T08:31:45;0.50;;;0.40;;
826;SDS011;395;48.132;11.608;2023-04-16T08:34:12;0.67;;;0.43;;
826;SDS011;395;48.132;11.608;2023-04-16T08:36:38;0.70;;;0.37;;
826;SDS011;395;48.132;11.608;2023-04-16T08:39:04;0.70;;;0.50;;
826;SDS011;395;48.132;11.608;2023-04-16T08:41:31;0.80;;;0.40;;
826;SDS011;395;48.132;11.608;2023-04-16T08:44:04;0.67;;;0.50;;
826;SDS011;395;48.132;11.608;2023-04-16T08:46:32;0.50;;;0.50;;
826;SDS011;395;48.132;11.608;2023-04-16T08:49:01;0.50;;;0.40;;
826;SDS011;395;48.132;11.608;2023-04-16T08:51:33;1.10;;;0.70;;
826;SDS011;395;48.132;11.608;2023-04-16T08:54:20;0.70;;;0.60;;
826;SDS011;395;48.132;11.608;2023-04-16T08:56:56;0.50;;;0.50;;
826;SDS011;395;48.132;11.608;2023-04-16T08:59:23;0.85;;;0.60;;
826;SDS011;395;48.132;11.608;2023-04-16T09:01:50;0.70;;;0.60;;
826;SDS011;395;48.132;11.608;2023-04-16T09:04:20;0.93;;;0.57;;
826;SDS011;395;48.132;11.608;2023-04-16T09:06:46;0.50;;;0.47;;
826;SDS011;395;48.132;11.608;2023-04-16T09:09:13;0.47;;;0.30;;
826;SDS011;395;48.132;11.608;2023-04-16T09:11:41;0.50;;;0.50;;
826;SDS011;395;48.132;11.608;2023-04-16T09:14:08;0.60;;;0.37;;
826;SDS011;395;48.132;11.608;2023-04-16T09:16:35;0.53;;;0.30;;
826;SDS011;395;48.132;11.608;2023-04-16T09:19:00;0.60;;;0.40;;
826;SDS011;395;48.132;11.608;2023-04-16T09:21:26;0.60;;;0.40;;
826;SDS011;395;48.132;11.608;2023-04-16T09:23:52;0.60;;;0.50;;
826;SDS011;395;48.132;11.608;2023-04-16T09:26:18;0.53;;;0.53;;
826;SDS011;395;48.132;11.608;2023-04-16T09:28:45;0.40;;;0.40;;
826;SDS011;395;48.132;11.608;2023-04-16T09:31:13;0.80;;;0.30;;
826;SDS011;395;48.132;11.608;2023-04-16T09:33:40;0.50;;;0.43;;
826;SDS011;395;48.132;11.608;2023-04-16T09:36:09;0.50;;;0.50;;
826;SDS011;395;48.132;11.608;2023-04-16T09:38:47;0.60;;;0.40;;
826;SDS011;395;48.132;11.608;2023-04-16T09:41:14;0.60;;;0.60;;
826;SDS011;395;48.132;11.608;2023-04-16T09:43:41;0.60;;;0.53;;
826;SDS011;395;48.132;11.608;2023-04-16T09:46:19;0.47;;;0.30;;
826;SDS011;395;48.132;11.608;2023-04-16T09:48:45;1.27;;;1.17;;
826;SDS011;395;48.132;11.608;2023-04-16T09:51:11;0.90;;;0.60;;
826;SDS011;395;48.132;11.608;2023-04-16T09:53:37;0.50;;;0.30;;
826;SDS011;395;48.132;11.608;2023-04-16T09:56:04;0.57;;;0.40;;
826;SDS011;395;48.132;11.608;2023-04-16T09:58:30;0.43;;;0.30;;
826;SDS011;395;48.132;11.608;2023-04-16T10:01:00;0.70;;;0.30;;
826;SDS011;395;48.132;11.608;2023-04-16T10:03:31;0.43;;;0.20;;
826;SDS011;395;48.132;11.608;2023-04-16T10:06:14;0.50;;;0.50;;
826;SDS011;395;48.132;11.608;2023-04-16T10:08:51;1.10;;;0.50;;
826;SDS011;395;48.132;11.608;2023-04-16T10:11:18;0.40;;;0.30;;
826;SDS011;395;48.132;11.608;2023-04-16T10:13:45;0.80;;;0.40;;
826;SDS011;395;48.132;11.608;2023-04-16T10:16:11;0.40;;;0.30;;
826;SDS011;395;48.132;11.608;2023-04-16T10:18:37;0.53;;;0.53;;
826;SDS011;395;48.132;11.608;2023-04-16T10:21:04;0.50;;;0.30;;
826;SDS011;395;48.132;11.608;2023-04-16T10:23:31;1.17;;;0.70;;
826;SDS011;395;48.132;11.608;2023-04-16T10:25:58;0.70;;;0.30;;
826;SDS011;395;48.132;11.608;2023-04-16T10:28:25;0.57;;;0.33;;
826;SDS011;395;48.132;11.608;2023-04-16T10:30:53;0.40;;;0.30;;
826;SDS011;395;48.132;11.608;2023-04-16T10:33:21;0.60;;;0.50;;
826;SDS011;395;48.132;11.608;2023-04-16T10:35:51;0.70;;;0.40;;
826;SDS011;395;48.132;11.608;2023-04-16T10:38:23;0.57;;;0.40;;
826;SDS011;395;48.132;11.608;2023-04-16T10:40:57;0.70;;;0.60;;
826;SDS011;395;48.132;11.608;2023-04-16T10:43:27;0.53;;;0.50;;
826;SDS011;395;48.132;11.608;2023-04-16T10:45:54;0.60;;;0.50;;
826;SDS011;395;48.132;11.608;2023-04-16T10:48:19;0.80;;;0.50;;
826;SDS011;395;48.132;11.608;2023-04-16T10:50:55;1.23;;;0.60;;
826;SDS011;395;48.132;11.608;2023-04-16T10:53:22;0.63;;;0.60;;
826;SDS011;395;48.132;11.608;2023-04-16T10:55:55;0.60;;;0.60;;
826;SDS011;395;48.132;11.608;2023-04-16T10:58:28;1.20;;;1.10;;
826;SDS011;395;48.132;11.608;2023-04-16T11:00:57;1.07;;;0.97;;
826;SDS011;395;48.132;11.608;2023-04-16T11:03:24;1.27;;;0.70;;
826;SDS011;395;48.132;11.608;2023-04-16T11:05:50;0.97;;;0.93;;
826;SDS011;395;48.132;11.608;2023-04-16T11:08:16;0.97;;;0.60;;
826;SDS011;395;48.132;11.608;2023-04-16T11:10:41;0.50;;;0.50;;
826;SDS011;395;48.132;11.608;2023-04-16T11:13:07;1.03;;;0.60;;
826;SDS011;395;48.132;11.608;2023-04-16T11:15:36;0.83;;;0.50;;
826;SDS011;395;48.132;11.608;2023-04-16T11:18:02;1.00;;;0.60;;
826;SDS011;395;48.132;11.608;2023-04-16T11:20:28;0.60;;;0.60;;
826;SDS011;395;48.132;11.608;2023-04-16T11:22:54;0.50;;;0.30;;
826;SDS011;395;48.132;11.608;2023-04-16T11:25:22;0.50;;;0.50;;
826;SDS011;395;48.132;11.608;2023-04-16T11:27:48;0.97;;;0.87;;
826;SDS011;395;48.132;11.608;2023-04-16T11:30:14;2.50;;;1.53;;
826;SDS011;395;48.132;11.608;2023-04-16T11:32:40;1.47;;;1.20;;
826;SDS011;395;48.132;11.608;2023-04-16T11:35:12;0.90;;;0.80;;
826;SDS011;395;48.132;11.608;2023-04-16T11:37:40;0.67;;;0.57;;
826;SDS011;395;48.132;11.608;2023-04-16T11:40:07;1.17;;;0.80;;
826;SDS011;395;48.132;11.608;2023-04-16T11:42:36;0.50;;;0.40;;
826;SDS011;395;48.132;11.608;2023-04-16T11:45:09;0.50;;;0.50;;
826;SDS011;395;48.132;11.608;2023-04-16T11:47:42;0.70;;;0.50;;
826;SDS011;395;48.132;11.608;2023-04-16T11:50:16;0.60;;;0.40;;
826;SDS011;395;48.132;11.608;2023-04-16T11:52:42;0.50;;;0.50;;
826;SDS011;395;48.132;11.608;2023-04-16T11:55:08;0.80;;;0.60;;
826;SDS011;395;48.132;11.608;2023-04-16T11:57:33;0.37;;;0.37;;
826;SDS011;395;48.132;11.608;2023-04-16T11:59:59;0.77;;;0.77;;
826;SDS011;395;48.132;11.608;2023-04-16T12:05:04;1.00;;;0.90;;
826;SDS011;395;48.132;11.608;2023-04-16T12:07:49;0.60;;;0.60;;
826;SDS011;395;48.132;11.608;2023-04-16T12:10:15;0.80;;;0.80;;
826;SDS011;395;48.132;11.608;2023-04-16T12:12:41;0.70;;;0.60;;
826;SDS011;395;48.132;11.608;2023-04-16T12:15:06;0.90;;;0.70;;
826;SDS011;395;48.132;11.608;2023-04-16T12:17:33;0.67;;;0.67;;
826;SDS011;395;48.132;11.608;2023-04-16T12:20:00;1.13;;;0.70;;
826;SDS011;395;48.132;11.608;2023-04-16T12:22:31;0.67;;;0.67;;
826;SDS011;395;48.132;11.608;2023-04-16T12:27:40;0.70;;;0.50;;
826;SDS011;395;48.132;11.608;2023-04-16T12:30:13;0.80;;;0.80;;
826;SDS011;395;48.132;11.608;2023-04-16T12:32:40;0.73;;;0.60;;
826;SDS011;395;48.132;11.608;2023-04-16T12:35:07;0.80;;;0.67;;
826;SDS011;395;48.132;11.608;2023-04-16T12:37:34;1.07;;;0.70;;
826;SDS011;395;48.132;11.608;2023-04-16T12:40:00;0.70;;;0.67;;
826;SDS011;395;48.132;11.608;2023-04-16T12:42:25;0.80;;;0.70;;
826;SDS011;395;48.132;11.608;2023-04-16T12:44:51;1.30;;;0.90;;
826;SDS011;395;48.132;11.608;2023-04-16T12:47:17;0.80;;;0.67;;
826;SDS011;395;48.132;11.608;2023-04-16T12:49:42;0.80;;;0.70;;
826;SDS011;395;48.132;11.608;2023-04-16T12:52:09;1.07;;;0.80;;
826;SDS011;395;48.132;11.608;2023-04-16T12:54:34;0.60;;;0.50;;
826;SDS011;395;48.132;11.608;2023-04-16T12:57:00;1.23;;;0.60;;
826;SDS011;395;48.132;11.608;2023-04-16T12:59:26;1.00;;;0.80;;
826;SDS011;395;48.132;11.608;2023-04-16T13:01:51;1.53;;;1.17;;
826;SDS011;395;48.132;11.608;2023-04-16T13:04:17;1.70;;;1.50;;
826;SDS011;395;48.132;11.608;2023-04-16T13:06:43;1.60;;;1.37;;
826;SDS011;395;48.132;11.608;2023-04-16T13:09:09;2.30;;;1.37;;
826;SDS011;395;48.132;11.608;2023-04-16T13:11:35;1.90;;;1.20;;
826;SDS011;395;48.132;11.608;2023-04-16T13:14:01;1.37;;;1.20;;
826;SDS011;395;48.132;11.608;2023-04-16T13:16:27;2.10;;;1.30;;
826;SDS011;395;48.132;11.608;2023-04-16T13:18:52;1.57;;;0.97;;
826;SDS011;395;48.132;11.608;2023-04-16T13:21:18;1.10;;;1.00;;
826;SDS011;395;48.132;11.608;2023-04-16T13:23:44;0.70;;;0.50;;
826;SDS011;395;48.132;11.608;2023-04-16T13:26:09;1.13;;;1.03;;
826;SDS011;395;48.132;11.608;2023-04-16T13:28:37;1.60;;;1.33;;
826;SDS011;395;48.132;11.608;2023-04-16T13:31:02;2.30;;;1.57;;
826;SDS011;395;48.132;11.608;2023-04-16T13:33:28;1.53;;;1.00;;
826;SDS011;395;48.132;11.608;2023-04-16T13:35:54;0.50;;;0.50;;
826;SDS011;395;48.132;11.608;2023-04-16T13:38:20;0.93;;;0.90;;
826;SDS011;395;48.132;11.608;2023-04-16T13:40:45;3.63;;;2.07;;
826;SDS011;395;48.132;11.608;2023-04-16T13:43:11;1.80;;;1.63;;
826;SDS011;395;48.132;11.608;2023-04-16T13:45:38;2.07;;;1.87;;
826;SDS011;395;48.132;11.608;2023-04-16T13:48:03;3.40;;;2.40;;
826;SDS011;395;48.132;11.608;2023-04-16T13:50:29;4.50;;;2.83;;
826;SDS011;395;48.132;11.608;2023-04-16T13:52:55;5.07;;;3.60;;
826;SDS011;395;48.132;11.608;2023-04-16T13:55:21;2.10;;;1.90;;
826;SDS011;395;48.132;11.608;2023-04-16T13:57:47;2.33;;;1.33;;
826;SDS011;395;48.132;11.608;2023-04-16T14:00:13;2.03;;;1.63;;
826;SDS011;395;48.132;11.608;2023-04-16T14:02:42;1.27;;;1.17;;
826;SDS011;395;48.132;11.608;2023-04-16T14:05:09;1.00;;;0.77;;
826;SDS011;395;48.132;11.608;2023-04-16T14:07:36;0.90;;;0.77;;
826;SDS011;395;48.132;11.608;2023-04-16T14:10:01;2.60;;;0.90;;
826;SDS011;395;48.132;11.608;2023-04-16T14:12:27;1.30;;;1.17;;
826;SDS011;395;48.132;11.608;2023-04-16T14:14:53;1.50;;;1.37;;
826;SDS011;395;48.132;11.608;2023-04-16T14:17:19;2.40;;;2.20;;
826;SDS011;395;48.132;11.608;2023-04-16T14:19:44;3.60;;;2.60;;
826;SDS011;395;48.132;11.608;2023-04-16T14:22:10;2.17;;;1.87;;
826;SDS011;395;48.132;11.608;2023-04-16T14:24:36;1.03;;;0.93;;
826;SDS011;395;48.132;11.608;2023-04-16T14:27:01;0.97;;;0.70;;
826;SDS011;395;48.132;11.608;2023-04-16T14:29:27;1.10;;;1.00;;
826;SDS011;395;48.132;11.608;2023-04-16T14:31:53;0.90;;;0.60;;
826;SDS011;395;48.132;11.608;2023-04-16T14:34:18;0.63;;;0.63;;
826;SDS011;395;48.132;11.608;2023-04-16T14:36:44;1.00;;;0.60;;
826;SDS011;395;48.132;11.608;2023-04-16T14:39:10;0.63;;;0.50;;
826;SDS011;395;48.132;11.608;2023-04-16T14:41:35;1.37;;;1.00;;
826;SDS011;395;48.132;11.608;2023-04-16T14:44:01;1.23;;;1.07;;
826;SDS011;395;48.132;11.608;2023-04-16T14:46:28;0.87;;;0.50;;
826;SDS011;395;48.132;11.608;2023-04-16T14:48:54;0.60;;;0.50;;
826;SDS011;395;48.132;11.608;2023-04-16T14:51:20;1.10;;;0.60;;
826;SDS011;395;48.132;11.608;2023-04-16T14:53:45;0.83;;;0.63;;
826;SDS011;395;48.132;11.608;2023-04-16T14:56:11;0.70;;;0.60;;
826;SDS011;395;48.132;11.608;2023-04-16T14:58:37;0.87;;;0.87;;
826;SDS011;395;48.132;11.608;2023-04-16T15:01:03;0.90;;;0.90;;
826;SDS011;395;48.132;11.608;2023-04-16T15:03:29;1.07;;;0.70;;
826;SDS011;395;48.132;11.608;2023-04-16T15:05:56;1.93;;;1.17;;
826;SDS011;395;48.132;11.608;2023-04-16T15:08:22;1.20;;;0.80;;
826;SDS011;395;48.132;11.608;2023-04-16T15:10:48;1.13;;;1.07;;
826;SDS011;395;48.132;11.608;2023-04-16T15:13:14;1.03;;;0.77;;
826;SDS011;395;48.132;11.608;2023-04-16T15:15:40;1.27;;;1.00;;
826;SDS011;395;48.132;11.608;2023-04-16T15:18:06;0.77;;;0.60;;
826;SDS011;395;48.132;11.608;2023-04-16T15:20:32;0.67;;;0.63;;
826;SDS011;395;48.132;11.608;2023-04-16T15:22:58;1.67;;;1.30;;
826;SDS011;395;48.132;11.608;2023-04-16T15:25:23;3.10;;;1.47;;
826;SDS011;395;48.132;11.608;2023-04-16T15:27:49;0.90;;;0.80;;
826;SDS011;395;48.132;11.608;2023-04-16T15:30:15;1.10;;;1.00;;